createdAt,value
2019-01-17T00:02:26.887Z,22.47
2019-01-17T00:05:23.753Z,22.43
2019-01-17T00:08:11.816Z,25.63
2019-01-17T00:11:03.557Z,27.17
2019-01-17T00:14:09.691Z,23.80
2019-01-17T00:17:15.726Z,27.63
2019-01-17T00:20:02.590Z,24.07
2019-01-17T00:22:49.519Z,27.80
2019-01-17T00:25:49.725Z,29.37
2019-01-17T00:28:36.304Z,25.33
2019-01-17T00:31:30.521Z,28.00
2019-01-17T00:34:17.200Z,23.23
2019-01-17T00:37:14.440Z,30.07
2019-01-17T00:40:04.392Z,27.10
2019-01-17T00:42:55.215Z,28.10
2019-01-17T00:45:41.696Z,28.60
2019-01-17T00:48:31.928Z,27.57
2019-01-17T00:51:18.664Z,26.00
2019-01-17T00:54:09.039Z,25.63
2019-01-17T00:56:55.268Z,29.77
2019-01-17T00:59:39.273Z,30.93
2019-01-17T01:02:30.226Z,30.50
2019-01-17T01:05:20.217Z,29.00
2019-01-17T01:08:06.924Z,29.57
2019-01-17T01:10:54.984Z,26.63
2019-01-17T01:13:45.710Z,29.47
2019-01-17T01:16:39.960Z,27.93
2019-01-17T01:19:15.204Z,26.80
2019-01-17T01:22:01.964Z,29.23
2019-01-17T01:25:08.336Z,24.83
2019-01-17T01:28:08.508Z,25.50
2019-01-17T01:31:08.547Z,25.53
2019-01-17T01:34:06.040Z,21.00
2019-01-17T01:36:52.623Z,26.20
2019-01-17T01:39:39.490Z,25.57
2019-01-17T01:42:25.667Z,23.43
2019-01-17T01:45:14.880Z,19.07
2019-01-17T01:48:08.958Z,22.80
2019-01-17T01:51:14.849Z,19.07
2019-01-17T01:53:43.432Z,20.47
2019-01-17T01:56:12.014Z,23.00
2019-01-17T01:58:40.524Z,22.50
2019-01-17T02:01:09.121Z,24.73
2019-01-17T02:03:37.853Z,20.87
2019-01-17T02:06:06.347Z,20.80
2019-01-17T02:08:34.816Z,23.13
2019-01-17T02:11:03.436Z,27.63
2019-01-17T02:13:32.023Z,25.77
2019-01-17T02:16:00.548Z,25.60
2019-01-17T02:18:29.088Z,27.00
2019-01-17T02:20:57.585Z,29.37
2019-01-17T02:23:26.089Z,33.73
2019-01-17T02:25:54.553Z,27.97
2019-01-17T02:28:23.051Z,35.57
2019-01-17T02:30:51.494Z,34.60
2019-01-17T02:33:20.064Z,28.77
2019-01-17T02:35:48.541Z,27.60
2019-01-17T02:38:17.053Z,29.97
2019-01-17T02:40:45.496Z,29.27
2019-01-17T02:43:14.848Z,30.03
2019-01-17T02:45:43.333Z,33.27
2019-01-17T02:48:11.876Z,32.43
2019-01-17T02:50:40.409Z,29.43
2019-01-17T02:53:08.915Z,30.70
2019-01-17T02:55:37.454Z,31.33
2019-01-17T02:58:05.874Z,29.67
2019-01-17T03:00:34.395Z,29.17
2019-01-17T03:03:02.924Z,33.17
2019-01-17T03:05:31.424Z,34.43
2019-01-17T03:07:59.903Z,31.30
2019-01-17T03:10:28.469Z,32.40
2019-01-17T03:12:56.987Z,27.20
2019-01-17T03:15:25.496Z,29.47
2019-01-17T03:17:54.081Z,26.37
2019-01-17T03:20:22.618Z,27.60
2019-01-17T03:22:51.111Z,32.27
2019-01-17T03:25:19.595Z,32.57
2019-01-17T03:27:48.117Z,29.17
2019-01-17T03:30:17.378Z,29.27
2019-01-17T03:32:45.909Z,28.63
2019-01-17T03:35:14.425Z,32.83
2019-01-17T03:37:42.924Z,30.47
2019-01-17T03:40:12.942Z,27.23
2019-01-17T03:42:41.465Z,30.07
2019-01-17T03:45:10.140Z,28.90
2019-01-17T03:47:38.707Z,30.10
2019-01-17T03:50:08.420Z,32.27
2019-01-17T03:52:37.024Z,31.20
2019-01-17T03:55:05.946Z,30.47
2019-01-17T03:57:34.456Z,35.27
2019-01-17T04:00:03.673Z,36.00
2019-01-17T04:02:32.208Z,36.00
2019-01-17T04:05:00.727Z,31.60
2019-01-17T04:07:29.236Z,31.63
2019-01-17T04:09:57.645Z,33.83
2019-01-17T04:13:05.833Z,32.97
2019-01-17T04:15:34.344Z,30.33
2019-01-17T04:18:02.839Z,30.20
2019-01-17T04:20:31.345Z,31.07
2019-01-17T04:22:59.824Z,30.30
2019-01-17T04:25:28.272Z,29.70
2019-01-17T04:27:56.805Z,35.00
2019-01-17T04:30:25.299Z,31.47
2019-01-17T04:32:53.796Z,26.83
2019-01-17T04:35:22.248Z,27.57
2019-01-17T04:37:50.748Z,29.53
2019-01-17T04:40:19.245Z,25.67
2019-01-17T04:42:47.688Z,25.83
2019-01-17T04:45:16.196Z,24.60
2019-01-17T04:47:44.678Z,27.13
2019-01-17T04:50:13.501Z,28.37
2019-01-17T04:52:42.032Z,24.77
2019-01-17T04:55:10.867Z,24.93
2019-01-17T04:57:39.400Z,26.27
2019-01-17T05:00:27.033Z,24.77
2019-01-17T05:02:55.621Z,26.43
2019-01-17T05:05:24.188Z,28.77
2019-01-17T05:07:52.685Z,29.47
2019-01-17T05:10:21.272Z,26.90
2019-01-17T05:12:49.796Z,31.90
2019-01-17T05:15:18.289Z,31.17
2019-01-17T05:17:46.811Z,32.53
2019-01-17T05:20:15.657Z,30.47
2019-01-17T05:22:44.231Z,32.23
2019-01-17T05:25:13.159Z,30.27
2019-01-17T05:27:41.570Z,29.77
2019-01-17T05:30:11.654Z,34.27
2019-01-17T05:32:40.769Z,31.20
2019-01-17T05:35:09.370Z,33.93
2019-01-17T05:37:37.876Z,34.40
2019-01-17T05:40:07.689Z,39.20
2019-01-17T05:42:36.289Z,38.70
2019-01-17T05:45:05.372Z,37.73
2019-01-17T05:47:33.872Z,37.17
2019-01-17T05:50:02.446Z,35.93
2019-01-17T05:52:30.861Z,37.20
2019-01-17T05:54:59.301Z,34.83
2019-01-17T05:57:27.845Z,32.97
2019-01-17T05:59:56.666Z,34.07
2019-01-17T06:02:25.245Z,40.17
2019-01-17T06:04:53.773Z,39.27
2019-01-17T06:07:22.228Z,41.33
2019-01-17T06:09:50.731Z,33.10
2019-01-17T06:12:19.273Z,35.13
2019-01-17T06:14:47.787Z,34.23
2019-01-17T06:17:16.312Z,36.13
2019-01-17T06:19:44.897Z,35.00
2019-01-17T06:22:13.411Z,38.65
2019-01-17T06:24:41.885Z,35.27
2019-01-17T06:27:11.440Z,33.33
2019-01-17T06:29:39.957Z,37.10
2019-01-17T06:32:08.531Z,34.97
2019-01-17T06:34:37.109Z,37.20
2019-01-17T06:37:05.640Z,40.10
2019-01-17T06:39:34.085Z,39.33
2019-01-17T06:42:02.544Z,38.83
2019-01-17T06:44:30.977Z,35.83
2019-01-17T06:46:59.422Z,36.37
2019-01-17T06:49:27.956Z,42.77
2019-01-17T06:51:56.328Z,37.43
2019-01-17T06:54:24.705Z,36.40
2019-01-17T06:56:53.315Z,35.53
2019-01-17T06:59:21.684Z,38.37
2019-01-17T07:01:50.134Z,38.13
2019-01-17T07:04:18.669Z,40.00
2019-01-17T07:06:47.095Z,39.00
2019-01-17T07:09:15.680Z,38.57
2019-01-17T07:11:44.294Z,37.83
2019-01-17T07:14:12.700Z,36.37
2019-01-17T07:16:41.129Z,41.20
2019-01-17T07:19:09.588Z,44.03
2019-01-17T07:21:38.188Z,42.50
2019-01-17T07:24:06.633Z,38.37
2019-01-17T07:26:35.340Z,37.57
2019-01-17T07:29:03.783Z,35.63
2019-01-17T07:31:32.240Z,38.00
2019-01-17T07:34:00.805Z,37.23
2019-01-17T07:36:29.277Z,36.97
2019-01-17T07:38:57.677Z,42.03
2019-01-17T07:41:26.080Z,34.90
2019-01-17T07:43:54.605Z,39.07
2019-01-17T07:46:23.090Z,37.33
2019-01-17T07:48:51.547Z,36.40
2019-01-17T07:51:19.992Z,36.10
2019-01-17T07:53:48.436Z,35.87
2019-01-17T07:56:16.930Z,37.93
2019-01-17T07:58:45.994Z,37.07
2019-01-17T08:01:15.071Z,35.67
2019-01-17T08:03:43.647Z,37.13
2019-01-17T08:06:12.086Z,35.60
2019-01-17T08:08:40.518Z,36.87
2019-01-17T08:11:08.936Z,36.10
2019-01-17T08:13:37.376Z,29.57
2019-01-17T08:16:05.832Z,35.27
2019-01-17T08:18:34.398Z,34.33
2019-01-17T08:21:02.845Z,33.00
2019-01-17T08:23:34.781Z,37.13
2019-01-17T08:26:01.424Z,34.40
2019-01-17T08:28:29.883Z,32.80
2019-01-17T08:30:58.368Z,33.37
2019-01-17T08:33:26.837Z,32.63
2019-01-17T08:35:55.286Z,28.03
2019-01-17T08:38:23.653Z,26.53
2019-01-17T08:40:52.136Z,28.70
2019-01-17T08:43:20.583Z,31.07
2019-01-17T08:45:49.050Z,28.83
2019-01-17T08:48:17.542Z,29.10
2019-01-17T08:50:53.478Z,33.97
2019-01-17T08:53:21.964Z,24.80
2019-01-17T08:55:50.430Z,31.20
2019-01-17T08:58:19.949Z,25.07
2019-01-17T09:00:48.452Z,26.03
2019-01-17T09:03:17.117Z,24.70
2019-01-17T09:05:45.587Z,24.70
2019-01-17T09:08:14.069Z,22.40
2019-01-17T09:10:42.520Z,21.67
2019-01-17T09:13:10.968Z,21.90
2019-01-17T09:15:39.431Z,17.47
2019-01-17T09:18:07.869Z,18.17
2019-01-17T09:20:36.280Z,19.37
2019-01-17T09:23:04.742Z,16.80
2019-01-17T09:25:33.204Z,17.00
2019-01-17T09:28:01.644Z,20.27
2019-01-17T09:30:30.079Z,16.20
2019-01-17T09:32:58.722Z,17.43
2019-01-17T09:35:28.659Z,19.40
2019-01-17T09:37:57.100Z,20.57
2019-01-17T09:40:25.608Z,15.00
2019-01-17T09:42:54.075Z,16.63
2019-01-17T09:45:22.543Z,18.70
2019-01-17T09:47:51.067Z,18.33
2019-01-17T09:50:23.307Z,16.97
2019-01-17T09:52:51.839Z,18.03
2019-01-17T09:55:20.311Z,15.03
2019-01-17T09:57:48.748Z,16.80
2019-01-17T10:00:18.695Z,16.20
2019-01-17T10:02:47.089Z,14.40
2019-01-17T10:05:15.566Z,15.07
2019-01-17T10:07:44.008Z,14.33
2019-01-17T10:10:13.618Z,16.53
2019-01-17T10:12:42.101Z,17.37
2019-01-17T10:15:12.223Z,12.37
2019-01-17T10:17:43.519Z,17.20
2019-01-17T10:20:43.103Z,15.00
2019-01-17T10:23:45.903Z,12.93
2019-01-17T10:26:33.540Z,19.73
2019-01-17T10:29:19.858Z,14.50
2019-01-17T10:31:56.998Z,18.50
2019-01-17T10:34:43.244Z,17.20
2019-01-17T10:37:30.414Z,12.63
2019-01-17T10:40:07.067Z,16.37
2019-01-17T10:43:00.836Z,19.03
2019-01-17T10:45:48.425Z,15.57
2019-01-17T10:48:48.001Z,12.70
2019-01-17T10:51:41.685Z,12.63
2019-01-17T10:54:38.052Z,13.93
2019-01-17T10:57:09.781Z,13.77
2019-01-17T10:59:46.316Z,15.60
2019-01-17T11:02:26.560Z,5.23
2019-01-17T11:05:14.185Z,10.73
2019-01-17T11:07:48.185Z,5.37
2019-01-17T11:10:28.336Z,6.33
2019-01-17T11:13:14.583Z,5.83
2019-01-17T11:16:08.057Z,4.97
2019-01-17T11:18:46.474Z,5.37
2019-01-17T11:21:40.107Z,4.07
2019-01-17T11:24:15.083Z,6.37
2019-01-17T11:27:00.857Z,5.10
2019-01-17T11:29:31.808Z,6.10
2019-01-17T11:32:07.752Z,5.83
2019-01-17T11:34:52.173Z,4.97
2019-01-17T11:37:33.914Z,3.80
2019-01-17T11:40:14.000Z,5.17
2019-01-17T11:42:51.272Z,4.90
2019-01-17T11:45:41.983Z,6.13
2019-01-17T11:48:28.221Z,5.67
2019-01-17T11:51:08.817Z,6.73
2019-01-17T11:54:08.396Z,9.03
2019-01-17T11:56:44.097Z,8.50
2019-01-17T11:59:34.483Z,10.87
2019-01-17T12:02:30.900Z,14.77
2019-01-17T12:04:59.383Z,9.37
2019-01-17T12:07:27.849Z,12.20
2019-01-17T12:09:56.300Z,14.07
2019-01-17T12:12:25.361Z,13.80
2019-01-17T12:14:56.971Z,11.60
2019-01-17T12:17:25.479Z,10.40
2019-01-17T12:19:53.965Z,10.97
2019-01-17T12:22:22.417Z,11.97
2019-01-17T12:24:51.205Z,10.33
2019-01-17T12:27:19.685Z,11.03
2019-01-17T12:29:49.607Z,12.93
2019-01-17T12:32:17.984Z,11.40
2019-01-17T12:34:46.457Z,10.77
2019-01-17T12:37:14.879Z,14.07
2019-01-17T12:39:43.317Z,13.40
2019-01-17T12:42:11.794Z,16.70
2019-01-17T12:44:40.220Z,15.20
2019-01-17T12:47:08.737Z,12.47
2019-01-17T12:49:37.312Z,13.23
2019-01-17T12:52:05.791Z,11.83
2019-01-17T12:54:34.234Z,13.70
2019-01-17T12:57:02.773Z,13.23
2019-01-17T12:59:31.193Z,12.20
2019-01-17T13:01:59.580Z,12.43
2019-01-17T13:04:27.981Z,10.00
2019-01-17T13:06:56.349Z,9.00
2019-01-17T13:09:24.855Z,9.13
2019-01-17T13:11:53.304Z,12.63
2019-01-17T13:14:21.732Z,11.67
2019-01-17T13:16:50.175Z,9.67
2019-01-17T13:19:18.603Z,9.40
2019-01-17T13:21:47.024Z,11.67
2019-01-17T13:24:15.436Z,8.57
2019-01-17T13:26:43.888Z,7.97
2019-01-17T13:29:12.453Z,10.63
2019-01-17T13:31:40.855Z,8.50
2019-01-17T13:34:09.375Z,12.80
2019-01-17T13:36:40.579Z,9.07
2019-01-17T13:39:08.187Z,12.27
2019-01-17T13:41:36.549Z,12.83
2019-01-17T13:44:04.995Z,9.23
2019-01-17T13:46:33.404Z,8.20
2019-01-17T13:49:01.769Z,8.60
2019-01-17T13:51:30.179Z,6.80
2019-01-17T13:53:58.584Z,9.23
2019-01-17T13:56:27.021Z,9.27
2019-01-17T13:58:55.356Z,8.07
2019-01-17T14:01:23.832Z,8.57
2019-01-17T14:03:52.256Z,9.20
2019-01-17T14:06:20.772Z,10.07
2019-01-17T14:08:49.165Z,9.67
2019-01-17T14:11:17.599Z,8.57
2019-01-17T14:13:46.019Z,9.60
2019-01-17T14:16:14.530Z,9.57
2019-01-17T14:18:43.084Z,9.20
2019-01-17T14:21:11.619Z,10.13
2019-01-17T14:23:39.980Z,11.63
2019-01-17T14:26:08.427Z,14.93
2019-01-17T14:28:36.791Z,17.63
2019-01-17T14:31:05.240Z,12.53
2019-01-17T14:33:33.621Z,10.97
2019-01-17T14:36:02.027Z,9.27
2019-01-17T14:38:30.431Z,13.57
2019-01-17T14:40:58.800Z,11.73
2019-01-17T14:43:27.143Z,9.90
2019-01-17T14:45:55.647Z,8.23
2019-01-17T14:48:24.094Z,10.17
2019-01-17T14:50:52.561Z,8.43
2019-01-17T14:53:20.941Z,10.23
2019-01-17T14:55:49.368Z,7.40
2019-01-17T14:58:18.807Z,10.40
2019-01-17T15:00:47.258Z,8.23
2019-01-17T15:03:15.696Z,9.63
2019-01-17T15:05:44.071Z,7.50
2019-01-17T15:08:12.475Z,8.20
2019-01-17T15:10:41.163Z,8.50
2019-01-17T15:13:09.685Z,6.87
2019-01-17T15:15:38.043Z,7.37
2019-01-17T15:18:06.827Z,8.47
2019-01-17T15:20:35.272Z,10.17
2019-01-17T15:23:03.739Z,8.40
2019-01-17T15:25:32.179Z,11.23
2019-01-17T15:28:00.585Z,10.00
2019-01-17T15:30:29.059Z,10.93
2019-01-17T15:32:57.435Z,13.77
2019-01-17T15:35:25.891Z,9.90
2019-01-17T15:37:54.478Z,10.63
2019-01-17T15:40:26.932Z,8.70
2019-01-17T15:42:55.479Z,7.87
2019-01-17T15:45:23.832Z,8.97
2019-01-17T15:47:52.359Z,8.57
2019-01-17T15:50:20.829Z,13.03
2019-01-17T15:52:49.243Z,5.80
2019-01-17T15:55:17.869Z,7.53
2019-01-17T15:57:47.615Z,9.50
2019-01-17T16:00:17.370Z,10.67
2019-01-17T16:02:45.836Z,7.47
2019-01-17T16:05:14.586Z,7.40
2019-01-17T16:07:43.004Z,6.87
2019-01-17T16:10:11.639Z,6.50
2019-01-17T16:12:40.104Z,9.23
2019-01-17T16:15:10.384Z,9.23
2019-01-17T16:17:38.860Z,5.70
2019-01-17T16:20:07.863Z,9.77
2019-01-17T16:22:38.179Z,5.87
2019-01-17T16:25:07.481Z,4.57
2019-01-17T16:27:41.843Z,5.80
2019-01-17T16:30:08.817Z,7.87
2019-01-17T16:32:37.279Z,6.13
2019-01-17T16:35:05.831Z,5.97
2019-01-17T16:37:34.276Z,8.53
2019-01-17T16:40:02.738Z,10.60
2019-01-17T16:42:31.163Z,7.73
2019-01-17T16:45:07.530Z,5.80
2019-01-17T16:47:35.749Z,10.03
2019-01-17T16:50:07.452Z,7.40
2019-01-17T16:52:35.870Z,7.97
2019-01-17T16:55:04.310Z,5.70
2019-01-17T16:57:32.776Z,9.40
2019-01-17T17:00:01.394Z,5.20
2019-01-17T17:02:30.087Z,9.87
2019-01-17T17:04:58.552Z,7.90
2019-01-17T17:07:26.981Z,7.67
2019-01-17T17:09:55.391Z,10.50
2019-01-17T17:12:24.244Z,10.47
2019-01-17T17:14:52.708Z,7.03
2019-01-17T17:17:21.146Z,13.33
2019-01-17T17:19:49.591Z,4.47
2019-01-17T17:22:18.247Z,5.67
2019-01-17T17:24:46.664Z,7.13
2019-01-17T17:27:15.183Z,15.50
2019-01-17T17:29:43.595Z,8.73
2019-01-17T17:32:12.041Z,12.47
2019-01-17T17:34:41.435Z,15.20
2019-01-17T17:37:09.894Z,8.27
2019-01-17T17:39:38.471Z,6.07
2019-01-17T17:42:06.930Z,11.70
2019-01-17T17:44:36.444Z,10.90
2019-01-17T17:47:05.898Z,7.13
2019-01-17T17:49:34.535Z,13.83
2019-01-17T17:52:03.126Z,10.20
2019-01-17T17:54:31.543Z,10.00
2019-01-17T17:57:00.015Z,6.90
2019-01-17T17:59:28.471Z,8.53
2019-01-17T18:02:01.684Z,4.53
2019-01-17T18:04:30.129Z,8.53
2019-01-17T18:06:58.662Z,8.33
2019-01-17T18:09:27.127Z,12.40
2019-01-17T18:11:55.783Z,8.93
2019-01-17T18:14:24.272Z,8.40
2019-01-17T18:16:52.714Z,9.53
2019-01-17T18:19:21.318Z,7.70
2019-01-17T18:21:49.774Z,10.07
2019-01-17T18:24:18.314Z,11.37
2019-01-17T18:26:47.743Z,8.27
2019-01-17T18:29:16.191Z,12.00
2019-01-17T18:31:44.663Z,13.20
2019-01-17T18:34:13.321Z,6.93
2019-01-17T18:36:44.639Z,7.43
2019-01-17T18:39:13.981Z,9.47
2019-01-17T18:41:42.419Z,10.82
2019-01-17T18:44:10.965Z,9.67
2019-01-17T18:46:39.487Z,6.90
2019-01-17T18:49:08.231Z,7.50
2019-01-17T18:51:37.162Z,12.37
2019-01-17T18:54:05.708Z,8.13
2019-01-17T18:56:34.151Z,11.60
2019-01-17T18:59:02.707Z,8.67
2019-01-17T19:01:31.237Z,8.20
2019-01-17T19:03:59.711Z,7.67
2019-01-17T19:06:28.491Z,6.03
2019-01-17T19:08:57.208Z,6.00
2019-01-17T19:11:25.716Z,7.05
2019-01-17T19:13:54.326Z,6.93
2019-01-17T19:16:23.787Z,7.87
2019-01-17T19:18:52.241Z,9.27
2019-01-17T19:21:20.847Z,7.63
2019-01-17T19:23:52.417Z,5.97
2019-01-17T19:26:21.008Z,7.37
2019-01-17T19:28:49.654Z,8.53
2019-01-17T19:31:18.190Z,8.67
2019-01-17T19:33:47.064Z,9.07
2019-01-17T19:36:16.419Z,12.50
2019-01-17T19:38:45.019Z,13.13
2019-01-17T19:41:15.776Z,9.50
2019-01-17T19:43:46.324Z,12.50
2019-01-17T19:46:24.664Z,9.13
2019-01-17T19:48:53.232Z,11.83
2019-01-17T19:51:21.784Z,10.27
2019-01-17T19:53:50.309Z,10.77
2019-01-17T19:56:21.874Z,9.07
2019-01-17T19:58:52.447Z,12.20
2019-01-17T20:01:23.089Z,12.03
2019-01-17T20:03:52.131Z,13.47
2019-01-17T20:06:20.773Z,16.47
2019-01-17T20:08:49.301Z,14.37
2019-01-17T20:11:17.836Z,15.47
2019-01-17T20:13:46.484Z,14.40
2019-01-17T20:16:15.125Z,17.80
2019-01-17T20:18:44.672Z,18.67
2019-01-17T20:21:13.215Z,15.17
2019-01-17T20:23:47.939Z,16.70
2019-01-17T20:26:17.675Z,17.50
2019-01-17T20:28:46.292Z,22.63
2019-01-17T20:31:14.968Z,16.13
2019-01-17T20:33:43.694Z,19.27
2019-01-17T20:36:14.583Z,17.83
2019-01-17T20:38:47.482Z,21.53
2019-01-17T20:41:44.147Z,19.07
2019-01-17T20:44:16.029Z,16.70
2019-01-17T20:46:44.553Z,17.73
2019-01-17T20:49:13.192Z,17.67
2019-01-17T20:51:42.331Z,19.60
2019-01-17T20:54:11.917Z,22.73
2019-01-17T20:56:41.024Z,20.83
2019-01-17T20:59:09.599Z,20.10
2019-01-17T21:01:45.244Z,16.97
2019-01-17T21:04:13.743Z,22.50
2019-01-17T21:06:42.288Z,20.80
2019-01-17T21:09:11.019Z,21.50
2019-01-17T21:11:39.607Z,20.80
2019-01-17T21:14:08.152Z,19.53
2019-01-17T21:16:36.619Z,16.77
2019-01-17T21:19:05.081Z,22.07
2019-01-17T21:21:33.591Z,24.47
2019-01-17T21:24:02.019Z,20.97
2019-01-17T21:26:30.501Z,19.67
2019-01-17T21:28:59.098Z,21.93
2019-01-17T21:31:27.575Z,16.37
2019-01-17T21:33:57.130Z,18.30
2019-01-17T21:36:25.735Z,19.87
2019-01-17T21:38:54.871Z,22.43
2019-01-17T21:41:26.630Z,16.73
2019-01-17T21:43:55.119Z,20.33
2019-01-17T21:46:23.647Z,21.30
2019-01-17T21:48:52.088Z,18.77
2019-01-17T21:51:20.535Z,18.17
2019-01-17T21:53:49.157Z,16.83
2019-01-17T21:56:17.652Z,21.67
2019-01-17T21:58:46.424Z,19.43
2019-01-17T22:01:14.866Z,17.10
2019-01-17T22:03:43.299Z,17.20
2019-01-17T22:06:11.747Z,20.73
2019-01-17T22:08:42.185Z,17.50
2019-01-17T22:11:10.543Z,18.27
2019-01-17T22:13:39.011Z,18.27
2019-01-17T22:16:07.481Z,16.53
2019-01-17T22:18:35.922Z,13.97
2019-01-17T22:21:04.411Z,18.33
2019-01-17T22:23:32.836Z,15.57
2019-01-17T22:26:01.401Z,12.63
2019-01-17T22:28:29.899Z,19.67
2019-01-17T22:30:58.271Z,19.47
2019-01-17T22:33:26.635Z,14.37
2019-01-17T22:35:55.063Z,14.73
2019-01-17T22:38:23.419Z,18.23
2019-01-17T22:40:52.028Z,14.17
2019-01-17T22:43:20.487Z,15.30
2019-01-17T22:45:48.851Z,15.80
2019-01-17T22:48:17.331Z,17.03
2019-01-17T22:50:45.755Z,14.00
2019-01-17T22:53:14.235Z,15.80
2019-01-17T22:55:42.695Z,14.47
2019-01-17T22:58:11.136Z,13.90
2019-01-17T23:00:51.600Z,16.87
2019-01-17T23:03:21.994Z,15.10
2019-01-17T23:05:50.588Z,12.47
2019-01-17T23:08:19.092Z,13.03
2019-01-17T23:10:47.563Z,16.20
2019-01-17T23:13:16.017Z,16.57
2019-01-17T23:15:44.455Z,15.30
2019-01-17T23:18:12.880Z,14.70
2019-01-17T23:20:41.323Z,11.77
2019-01-17T23:23:09.880Z,16.90
2019-01-17T23:25:38.320Z,13.80
2019-01-17T23:28:06.767Z,16.17
2019-01-17T23:30:35.211Z,17.57
2019-01-17T23:33:03.699Z,16.20
2019-01-17T23:35:32.143Z,12.50
2019-01-17T23:38:00.687Z,17.27
2019-01-17T23:40:29.114Z,14.33
2019-01-17T23:42:57.630Z,15.87
2019-01-17T23:45:26.064Z,12.70
2019-01-17T23:47:54.547Z,15.60
2019-01-17T23:50:23.039Z,15.40
2019-01-17T23:52:51.461Z,14.70
2019-01-17T23:55:19.984Z,12.53
2019-01-17T23:57:48.439Z,12.83
